createdAt,value
2023-02-08T00:01:20.561Z,43.167779964353215
2023-02-08T00:04:16.727Z,43.02432422823308
2023-02-08T00:07:16.853Z,43.18381136724946
2023-02-08T00:11:16.098Z,43.38815365555031
2023-02-08T00:14:16.603Z,43.4529871813861
2023-02-08T00:17:16.564Z,43.596359256598504
2023-02-08T00:21:17.584Z,43.513512635226796
2023-02-08T00:24:16.142Z,43.72831648162558
2023-02-08T00:27:16.171Z,43.89806763608381
2023-02-08T00:31:16.257Z,43.888446676866174
2023-02-08T00:34:16.515Z,44.20109770566246
2023-02-08T00:37:16.861Z,43.789010519420756
2023-02-08T00:41:16.186Z,44.06898546331801
2023-02-08T00:44:16.772Z,43.90465758295993
2023-02-08T00:47:16.630Z,43.810714637334016
2023-02-08T00:51:16.000Z,44.12443154457265
2023-02-08T00:54:18.084Z,44.21244333416413
2023-02-08T00:57:16.457Z,44.10182549949147
2023-02-08T01:01:15.873Z,44.09567084854084
2023-02-08T01:04:16.033Z,44.200331239084264
2023-02-08T01:07:16.386Z,44.11846785736586
2023-02-08T01:11:21.903Z,44.167723231305686
2023-02-08T01:14:17.779Z,43.99661308596844
2023-02-08T01:17:16.775Z,44.14029533587245
2023-02-08T01:21:18.036Z,44.04127900823502
2023-02-08T01:24:16.851Z,44.15109126071657
2023-02-08T01:27:16.257Z,44.06381385604818
2023-02-08T01:31:19.370Z,44.195238872064444
2023-02-08T01:34:16.818Z,43.94157832067674
2023-02-08T01:37:16.857Z,44.28280461373719
2023-02-08T01:41:18.042Z,43.71531746185969
2023-02-08T01:51:20.537Z,44.19412686632276
2023-02-08T01:54:18.447Z,43.83630363030944
2023-02-08T01:57:17.138Z,43.86924500658796
2023-02-08T02:01:16.192Z,43.89662274095453
2023-02-08T02:04:16.246Z,43.83110618456486
2023-02-08T02:07:17.436Z,43.89100475582119
2023-02-08T02:11:16.510Z,43.74860086176019
2023-02-08T02:14:17.052Z,44.2422765740559
2023-02-08T02:17:18.888Z,44.11587278969548
2023-02-08T02:21:33.359Z,44.29244207367625
2023-02-08T02:25:00.687Z,44.12669917113471
2023-02-08T02:27:26.001Z,44.20910484998954
2023-02-08T02:43:46.428Z,43.70253990394453
2023-02-08T02:44:23.565Z,43.394890329884916
2023-02-08T02:47:32.647Z,43.9334787999882
2023-02-08T02:51:23.496Z,43.868039203147994
2023-02-08T02:54:20.278Z,44.104954279789915
2023-02-08T02:57:22.179Z,44.22523216460074
2023-02-08T03:01:22.321Z,44.170155641038995
2023-02-08T03:04:18.866Z,44.26863001182613
2023-02-08T03:07:31.288Z,44.59319745870128
2023-02-08T03:11:19.093Z,44.510766894145846
2023-02-08T03:14:32.902Z,44.49960348186536
2023-02-08T03:17:32.643Z,44.48843685754185
2023-02-08T03:21:22.067Z,44.64766156512017
2023-02-08T03:24:27.255Z,44.60899004375264
2023-02-08T03:27:24.584Z,44.938710148496405
2023-02-08T03:31:23.458Z,44.55917425708509
2023-02-08T03:34:20.284Z,44.68003248923126
2023-02-08T03:37:20.503Z,44.679720652099405
2023-02-08T03:41:22.097Z,44.51463302641296
2023-02-08T03:44:22.449Z,44.92633031273434
2023-02-08T03:47:21.644Z,44.767774553108175
2023-02-08T03:51:17.383Z,44.794993649732824
2023-02-08T03:54:24.709Z,44.65171241030386
2023-02-08T03:57:20.457Z,44.82122301726196
2023-02-08T04:01:22.046Z,44.696136518582264
2023-02-08T04:04:18.725Z,44.932406396915795
2023-02-08T04:07:18.388Z,44.86556478102342
2023-02-08T04:11:16.225Z,45.02510806110889
2023-02-08T04:14:16.568Z,45.01915219831819
2023-02-08T04:17:16.304Z,44.94225355775364
2023-02-08T04:21:16.413Z,45.07339693682357
2023-02-08T04:24:16.481Z,45.068210713623344
2023-02-08T04:27:16.611Z,45.25971638296465
2023-02-08T04:31:16.571Z,45.39124523661166
2023-02-08T04:34:16.896Z,45.177687990668964
2023-02-08T04:37:16.925Z,45.07963751753557
2023-02-08T04:41:15.997Z,45.01828150788175
2023-02-08T04:44:16.469Z,44.95324913433549
2023-02-08T04:47:16.338Z,45.03563510243074
2023-02-08T04:51:16.300Z,45.0845801499432
2023-02-08T04:54:16.188Z,45.22222525580208
2023-02-08T04:57:16.126Z,44.93662479855544
2023-02-08T05:01:16.657Z,45.00824516797794
2023-02-08T05:04:16.726Z,45.05823324839505
2023-02-08T05:07:16.108Z,45.194104817849855
2023-02-08T05:11:19.594Z,45.18848896457433
2023-02-08T05:14:16.367Z,45.22715751454245
2023-02-08T05:17:16.301Z,45.23800829045445
2023-02-08T05:21:15.934Z,45.621345629807884
2023-02-08T05:24:16.791Z,45.445910756375476
2023-02-08T05:27:17.182Z,45.22020728020445
2023-02-08T05:31:19.132Z,45.63757402527319
2023-02-08T05:34:17.149Z,45.665331859131825
2023-02-08T05:37:16.208Z,45.63693327236933
2023-02-08T05:41:17.005Z,45.57162440206328
2023-02-08T05:44:17.231Z,45.45086579082328
2023-02-08T05:47:17.147Z,45.35297139027286
2023-02-08T05:51:16.833Z,45.73029070799269
2023-02-08T05:54:16.848Z,45.65387167087893
2023-02-08T05:57:17.610Z,45.89593295239397
2023-02-08T06:01:16.524Z,45.95048020386223
2023-02-08T06:04:16.249Z,45.97223726020453
2023-02-08T06:07:16.208Z,45.89389013374793
2023-02-08T06:11:17.146Z,46.02647730080043
2023-02-08T06:14:16.485Z,45.71950021770003
2023-02-08T06:17:16.512Z,45.984278822955545
2023-02-08T06:21:15.994Z,45.79671409491333
2023-02-08T06:24:16.897Z,46.20306222906026
2023-02-08T06:27:16.477Z,46.08163254120595
2023-02-08T06:31:15.783Z,46.27723014905698
2023-02-08T06:34:16.084Z,46.568644666497185
2023-02-08T06:37:16.361Z,46.83645127651777
2023-02-08T06:41:16.368Z,46.744897859891104
2023-02-08T06:44:16.829Z,46.50876854282756
2023-02-08T06:47:16.801Z,46.43210306156679
2023-02-08T06:51:15.786Z,46.38287849049048
2023-02-08T06:54:16.165Z,46.382375964682936
2023-02-08T06:57:16.359Z,46.55325088665981
2023-02-08T07:01:16.625Z,46.553958205938514
2023-02-08T07:04:17.128Z,46.461004019111435
2023-02-08T07:07:17.458Z,46.73723533424271
2023-02-08T07:11:19.092Z,46.77547641250736
2023-02-08T07:14:16.789Z,46.68904227077459
2023-02-08T07:17:16.852Z,47.145735461589226
2023-02-08T07:21:16.287Z,46.92612761016138
2023-02-08T07:24:16.645Z,46.938367586625866
2023-02-08T07:27:17.010Z,46.95058079070916
2023-02-08T07:31:16.876Z,47.22223597663761
2023-02-08T07:34:21.812Z,46.942646946459895
2023-02-08T07:37:16.541Z,47.05306078774046
2023-02-08T07:41:16.246Z,47.24090346667416
2023-02-08T07:44:16.316Z,47.07288275329467
2023-02-08T07:47:17.225Z,47.03556775310897
2023-02-08T07:51:16.369Z,46.77792682880515
2023-02-08T07:54:16.711Z,47.10861516539504
2023-02-08T07:57:21.199Z,46.96212899986663
2023-02-08T08:01:22.417Z,47.12933764749176
2023-02-08T08:04:16.681Z,46.954741329269126
2023-02-08T08:07:16.240Z,46.77474576570826
2023-02-08T08:11:17.414Z,46.69524362794426
2023-02-08T08:14:16.573Z,46.78454380097917
2023-02-08T08:17:16.653Z,46.71459664059385
2023-02-08T08:21:16.994Z,46.39070816349416
2023-02-08T08:24:16.494Z,46.46977858112672
2023-02-08T08:27:16.464Z,46.30075330106602
2023-02-08T08:31:17.927Z,46.48475937007672
2023-02-08T08:34:16.231Z,45.93993611670418
2023-02-08T08:37:16.237Z,45.86418524334106
2023-02-08T08:41:17.330Z,45.5744256615941
2023-02-08T08:44:16.383Z,45.7970641724491
2023-02-08T08:47:16.445Z,45.53343850004618
2023-02-08T08:51:16.273Z,45.55290115345947
2023-02-08T08:54:16.969Z,45.28352875977046
2023-02-08T08:57:16.946Z,45.36236644497951
2023-02-08T09:01:16.008Z,45.049127508628665
2023-02-08T09:04:16.277Z,45.44890322600367
2023-02-08T09:07:16.638Z,45.33946858066267
2023-02-08T09:11:16.218Z,45.11452813985426
2023-02-08T09:14:16.515Z,45.26551590018684
2023-02-08T09:17:16.488Z,45.129041909613804
2023-02-08T09:21:18.056Z,45.02065709380321
2023-02-08T09:24:16.507Z,44.72378356821284
2023-02-08T09:27:16.438Z,44.913906189382175
2023-02-08T09:31:19.983Z,44.50075023338663
2023-02-08T09:34:16.728Z,44.546836374956456
2023-02-08T09:37:18.220Z,44.327630865412026
2023-02-08T09:41:31.950Z,44.44609776493153
2023-02-08T09:44:22.738Z,44.23708022370613
2023-02-08T09:47:21.773Z,44.244231606171155
2023-02-08T09:51:23.994Z,44.679503261245344
2023-02-08T09:54:21.801Z,44.592718820485295
2023-02-08T09:57:21.331Z,44.11742851464069
2023-02-08T10:01:23.217Z,43.86481562753703
2023-02-08T10:04:24.664Z,43.88411163560486
2023-02-08T10:07:16.907Z,43.94785150742471
2023-02-08T10:11:33.014Z,43.935404470384356
2023-02-08T10:14:36.373Z,43.56521659410604
2023-02-08T10:17:33.921Z,43.294787530237826
2023-02-08T10:21:29.553Z,43.16483183242411
2023-02-08T10:24:36.603Z,43.24546464992707
2023-02-08T10:27:23.189Z,43.17553310790194
2023-02-08T10:31:24.873Z,42.72619208729114
2023-02-08T10:34:29.394Z,42.91841155611778
2023-02-08T10:37:18.529Z,42.19365247986991
2023-02-08T10:41:22.437Z,41.927804370275744
2023-02-08T10:44:23.903Z,41.5599177103823
2023-02-08T10:47:26.534Z,41.31512478176066
2023-02-08T10:51:20.378Z,40.63275286932657
2023-02-08T10:54:16.569Z,39.98850057855009
2023-02-08T10:57:21.542Z,39.63567426575918
2023-02-08T11:01:16.150Z,38.32711984694774
2023-02-08T11:04:17.353Z,38.16973237573411
2023-02-08T11:07:19.694Z,37.92779428940593
2023-02-08T11:11:15.740Z,37.30828258660035
2023-02-08T11:14:18.366Z,37.64022808761856
2023-02-08T11:17:32.449Z,38.017504382287605
2023-02-08T11:31:18.167Z,35.84307738335058
2023-02-08T11:34:24.299Z,35.796747997843624
2023-02-08T11:37:18.874Z,35.840961929046465
2023-02-08T11:41:18.767Z,35.09282374304423
2023-02-08T11:44:21.942Z,35.39701458975323
2023-02-08T11:47:23.452Z,34.94328952513756
2023-02-08T11:51:26.752Z,33.950022488767075
2023-02-08T11:54:34.300Z,33.67112248023898
2023-02-08T11:57:19.525Z,34.11707620965645
2023-02-08T12:01:20.086Z,33.59855567871943
2023-02-08T12:04:17.453Z,33.45446342422468
2023-02-08T12:07:22.625Z,33.32185988493231
2023-02-08T12:11:22.854Z,33.39284492671262
2023-02-08T12:14:31.226Z,33.691986155414114
2023-02-08T12:17:40.370Z,32.75823611160436
2023-02-08T12:21:21.004Z,32.27794705528625
2023-02-08T12:24:28.032Z,32.76507730998064
2023-02-08T12:27:31.942Z,31.823097932522064
2023-02-08T12:31:31.873Z,31.291305852338795
2023-02-08T12:34:23.338Z,30.565531596814417
2023-02-08T12:41:21.620Z,29.68236759760577
2023-02-08T12:44:31.512Z,29.39543277129591
2023-02-08T12:47:35.488Z,29.37041453991611
2023-02-08T12:51:27.611Z,28.290046354137967
2023-02-08T12:54:28.397Z,28.129458885789354
2023-02-08T12:57:22.062Z,28.658632812486513
2023-02-08T13:01:20.642Z,28.789196581850895
2023-02-08T13:04:21.971Z,28.37567084187965
2023-02-08T13:07:23.248Z,28.13083479554775
2023-02-08T13:11:24.740Z,27.702386628803257
2023-02-08T13:14:28.692Z,27.929753363235214
2023-02-08T13:17:21.383Z,27.76873255245199
2023-02-08T13:21:21.665Z,27.85435260055725
2023-02-08T13:24:26.578Z,27.105070865582167
2023-02-08T13:27:19.411Z,27.014499049929242
2023-02-08T13:31:22.034Z,26.431142451127023
2023-02-08T13:34:21.898Z,26.783783138196878
2023-02-08T13:37:25.313Z,26.596463368885484
2023-02-08T13:41:19.359Z,27.081891158438474
2023-02-08T13:44:20.250Z,26.670096060675515
2023-02-08T13:47:24.462Z,26.22356769377973
2023-02-08T13:51:53.911Z,26.15564578070352
2023-02-08T13:54:16.162Z,26.841469692911215
2023-02-08T13:57:51.463Z,26.58005721679196
2023-02-08T14:01:19.882Z,26.769037925092764
2023-02-08T14:04:36.040Z,27.2775178424248
2023-02-08T14:07:27.234Z,26.700013965702823
2023-02-08T14:11:29.652Z,25.91873266514902
2023-02-08T14:14:19.885Z,26.44959708081327
2023-02-08T14:17:20.053Z,26.432006944478616
2023-02-08T14:21:28.840Z,26.496310790724465
2023-02-08T14:24:21.754Z,26.121200427659748
2023-02-08T14:27:21.844Z,26.093244672267453
2023-02-08T14:31:21.012Z,25.981521038657426
2023-02-08T14:34:26.022Z,26.36625731767146
2023-02-08T14:37:28.209Z,26.45426102115669
2023-02-08T14:41:44.935Z,26.157474678002718
2023-02-08T14:45:28.449Z,26.598755160651127
2023-02-08T14:47:54.778Z,26.35957131353669
2023-02-08T14:51:23.612Z,26.49760840860906
2023-02-08T14:54:23.251Z,26.413700545584767
2023-02-08T14:57:23.290Z,26.40309859743783
2023-02-08T15:01:20.121Z,26.411707400369107
2023-02-08T15:04:19.459Z,26.663844285797417
2023-02-08T15:07:28.665Z,26.40806263588873
2023-02-08T15:11:21.925Z,26.501884343092225
2023-02-08T15:14:19.386Z,26.83397825618819
2023-02-08T15:17:24.956Z,26.818693883930276
2023-02-08T15:21:18.113Z,26.789040271278665
2023-02-08T15:24:18.343Z,26.949908246614743
2023-02-08T15:27:20.594Z,27.2152152402543
2023-02-08T15:31:19.816Z,27.202060009212335
2023-02-08T15:34:17.431Z,27.51774092153365
2023-02-08T15:37:17.515Z,27.441507703018512
2023-02-08T15:41:26.396Z,27.706617581436504
2023-02-08T15:44:19.637Z,27.790903406723604
2023-02-08T15:47:19.328Z,28.051612014164842
2023-02-08T15:51:18.280Z,28.10073028828436
2023-02-08T15:54:18.681Z,28.349629270939413
2023-02-08T15:57:28.395Z,28.745976343076986
2023-02-08T16:01:19.522Z,29.16116236293405
2023-02-08T16:04:18.103Z,29.431313958292325
2023-02-08T16:07:24.727Z,29.724689981269513
2023-02-08T16:11:22.179Z,30.415071844397414
2023-02-08T16:14:19.650Z,30.746981329664745
2023-02-08T16:17:37.965Z,30.890762871806114
2023-02-08T16:21:25.913Z,31.595351769375917
2023-02-08T16:24:22.680Z,31.943223951360466
2023-02-08T16:27:23.996Z,32.1768107341956
2023-02-08T16:31:20.891Z,32.68793160865843
2023-02-08T16:34:18.273Z,32.80272383488487
2023-02-08T16:37:25.697Z,32.989877969138206
2023-02-08T16:41:22.820Z,33.39822899612463
2023-02-08T16:44:22.519Z,33.846190590768934
2023-02-08T16:47:35.882Z,34.151812192673304
2023-02-08T16:51:19.827Z,34.620425349084755
2023-02-08T16:54:20.807Z,34.94205790574806
2023-02-08T16:57:17.222Z,35.325413604087835
2023-02-08T17:01:16.213Z,35.52289958108351
2023-02-08T17:04:16.160Z,35.906158516654784
2023-02-08T17:07:17.541Z,36.0246081906385
2023-02-08T17:11:16.164Z,36.384778792229625
2023-02-08T17:14:17.063Z,36.6096727980954
2023-02-08T17:17:16.479Z,36.78937006250677
2023-02-08T17:21:16.049Z,37.11512435421214
2023-02-08T17:24:17.775Z,37.434897871073744
2023-02-08T17:27:16.237Z,37.40699687436199
2023-02-08T17:31:17.089Z,37.821786206118645
2023-02-08T17:34:17.672Z,37.84979672525033
2023-02-08T17:37:16.971Z,38.196958953419816
2023-02-08T17:41:18.015Z,37.97297538209894
2023-02-08T17:44:16.994Z,38.23606023166673
2023-02-08T17:47:16.548Z,38.510162775268306
2023-02-08T17:51:18.519Z,38.823074825218384
2023-02-08T17:54:16.980Z,38.923685925365554
2023-02-08T17:57:16.427Z,38.794896195583796
2023-02-08T18:01:20.446Z,39.11328934887482
2023-02-08T18:04:17.110Z,39.2638951194916
2023-02-08T18:07:17.374Z,39.45910148030029
2023-02-08T18:11:19.456Z,39.33036940881185
2023-02-08T18:14:18.395Z,39.60946310321146
2023-02-08T18:17:16.590Z,39.82668939398879
2023-02-08T18:21:18.037Z,40.08873376915793
2023-02-08T18:24:16.204Z,40.104859498791605
2023-02-08T18:27:16.734Z,40.0321740393247
2023-02-08T18:31:17.815Z,40.10443491614541
2023-02-08T18:34:17.708Z,40.288257109857504
2023-02-08T18:37:16.536Z,40.544100276998996
2023-02-08T18:41:18.811Z,40.49351336052103
2023-02-08T18:44:18.199Z,40.34273184524128
2023-02-08T18:47:17.033Z,40.40369002615625
2023-02-08T18:51:20.309Z,40.58691523203654
2023-02-08T18:54:17.518Z,40.88156391734185
2023-02-08T18:57:16.640Z,40.79776259138821
2023-02-08T19:01:17.855Z,40.67490766693587
2023-02-08T19:04:16.459Z,40.84133511113907
2023-02-08T19:07:16.424Z,41.15249634071276
2023-02-08T19:11:18.785Z,41.16873623774616
2023-02-08T19:14:16.719Z,41.217999370806126
2023-02-08T19:17:16.826Z,41.317126352597676
2023-02-08T19:21:17.125Z,41.28408465637449
2023-02-08T19:24:16.401Z,41.38337883142405
2023-02-08T19:27:16.347Z,41.09946747549092
2023-02-08T19:31:18.821Z,41.18198586576757
2023-02-08T19:34:17.445Z,41.387148499798194
2023-02-08T19:37:16.986Z,41.61998013381766
2023-02-08T19:51:16.656Z,42.01773326693163
2023-02-08T19:54:18.749Z,42.15051367092035
2023-02-08T19:57:16.321Z,42.200043375382215
2023-02-08T20:01:18.385Z,42.37250764202162
2023-02-08T20:04:16.387Z,42.3884559571353
2023-02-08T20:07:16.235Z,42.78683159470569
2023-02-08T20:11:18.584Z,42.875240197890804
2023-02-08T20:14:16.626Z,42.98554059068349
2023-02-08T20:17:16.633Z,43.185400682634004
2023-02-08T20:21:17.320Z,43.32923423018725
2023-02-08T20:24:17.036Z,43.589941917491366
2023-02-08T20:27:17.213Z,43.90493531778906
2023-02-08T20:31:18.896Z,43.81083662782951
2023-02-08T20:34:17.290Z,44.04259339775421
2023-02-08T20:37:20.837Z,44.12054152689807
2023-02-08T20:41:16.434Z,44.44618921438534
2023-02-08T20:44:21.252Z,44.46330223576646
2023-02-08T20:47:19.708Z,44.40235959543209
2023-02-08T20:51:20.365Z,44.816995455575494
2023-02-08T20:54:18.211Z,44.50189744488701
2023-02-08T20:57:18.626Z,44.451624883338795
2023-02-08T21:01:20.230Z,44.87689177007663
2023-02-08T21:04:20.250Z,44.58403824079019
2023-02-08T21:07:18.056Z,44.86590092259565
2023-02-08T21:11:15.799Z,44.815727456314946
2023-02-08T21:14:20.480Z,44.84897243039541
2023-02-08T21:17:16.332Z,45.05896862925727
2023-02-08T21:21:16.387Z,45.229539892467486
2023-02-08T21:24:16.162Z,45.3447612163893
2023-02-08T21:27:16.062Z,45.08970182300641
2023-02-08T21:31:19.395Z,45.453936382423656
2023-02-08T21:34:19.548Z,45.487140144218806
2023-02-08T21:37:16.670Z,45.60814363169956
2023-02-08T21:41:17.868Z,45.59080934181027
2023-02-08T21:44:16.302Z,45.933818832603826
2023-02-08T21:47:16.092Z,45.81792839647952
2023-02-08T22:01:16.756Z,45.97491946829808
2023-02-08T22:04:17.070Z,45.90914139826253
2023-02-08T22:07:17.787Z,45.9318605397834
2023-02-08T22:11:16.457Z,46.05841608776448
2023-02-08T22:14:16.791Z,46.1116785707152
2023-02-08T22:17:17.444Z,46.03493613468631
2023-02-08T22:21:15.999Z,45.925411861605276
2023-02-08T22:24:16.327Z,45.87553578005936
2023-02-08T22:27:16.427Z,45.95742263814222
2023-02-08T22:31:16.765Z,45.73610183134088
2023-02-08T22:34:17.031Z,45.75804482176532
2023-02-08T22:37:16.983Z,45.82430930308077
2023-02-08T22:41:16.999Z,45.81931308429293
2023-02-08T22:44:17.231Z,45.762588964506826
2023-02-08T22:47:16.649Z,45.67458245893036
2023-02-08T22:51:18.381Z,46.00556957051933
2023-02-08T22:54:16.920Z,45.89471224100031
2023-02-08T22:57:17.283Z,45.91022520383626
2023-02-08T23:01:18.731Z,46.097575982982036
2023-02-08T23:04:16.232Z,46.22505715047191
2023-02-08T23:07:16.479Z,46.213773181377114
2023-02-08T23:11:16.818Z,46.36207828651105
2023-02-08T23:14:16.650Z,46.48306177132922
2023-02-08T23:17:16.984Z,46.41674767554369
2023-02-08T23:21:19.885Z,46.34450685913737
2023-02-08T23:24:16.970Z,46.78414835332508
2023-02-08T23:27:16.968Z,46.96578668924984
2023-02-08T23:31:16.762Z,46.87696117034229
2023-02-08T23:34:16.551Z,46.94861194632892
2023-02-08T23:37:16.233Z,47.06393954381074
2023-02-08T23:41:19.128Z,47.11303455309583
2023-02-08T23:44:16.907Z,47.464676997310484
2023-02-08T23:47:16.867Z,47.42475509029859
2023-02-08T23:51:17.914Z,47.64041164460111
2023-02-08T23:54:16.108Z,47.419375011813024
2023-02-08T23:57:15.987Z,47.45205507593568
